Location Greenlaw, NA, UK

ob NPTOHCUK 261500Z AUTO 03005G12KT CLR CLR 18/10 A3034 RMK SLPNO 

2018.05.26 1500 UTC
Wind from the NNE (025 degrees) at 6 MPH (5 KT) gusting to 14 MPH (12 KT)
Visibility    Mile(s)
Weather: CLR
Sky Conditions  clear
Temperature 64.2 F (18 C)
Dew Point 50.5 F (10 C)
Relative Humidity 61%
Pressure   30.342 in. Hg (1027 hPa)
Rain  0.00 in.
Daily Rain  in.

Station Name  New Palace Theatre Organ Heritage Centre
Longitude, Latitude  -2.46, 55.71
Elevation 525
Station URL http://www.nptohc.co.uk/weather
Software Type WeatherDisplay:10.37P